sensor_id;sensor_type;location;lat;lon;timestamp;temperature;humidity
21487;DHT22;10905;50.822;4.336;2022-12-18T00:01:26;-0.70;99.90
21487;DHT22;10905;50.822;4.336;2022-12-18T00:03:55;-0.70;99.90
21487;DHT22;10905;50.822;4.336;2022-12-18T00:06:21;-0.60;99.90
21487;DHT22;10905;50.822;4.336;2022-12-18T00:08:47;-0.50;99.90
21487;DHT22;10905;50.822;4.336;2022-12-18T00:11:18;-0.50;99.90
21487;DHT22;10905;50.822;4.336;2022-12-18T00:13:45;-0.60;99.90
21487;DHT22;10905;50.822;4.336;2022-12-18T00:16:14;-0.60;99.90
21487;DHT22;10905;50.822;4.336;2022-12-18T00:18:40;-0.70;99.90
21487;DHT22;10905;50.822;4.336;2022-12-18T00:21:07;-0.70;99.90
21487;DHT22;10905;50.822;4.336;2022-12-18T00:23:34;-0.70;99.90
21487;DHT22;10905;50.822;4.336;2022-12-18T00:26:05;-0.80;99.90
21487;DHT22;10905;50.822;4.336;2022-12-18T00:28:31;-0.90;99.90
21487;DHT22;10905;50.822;4.336;2022-12-18T00:33:27;-1.00;99.90
21487;DHT22;10905;50.822;4.336;2022-12-18T00:35:53;-1.10;99.90
21487;DHT22;10905;50.822;4.336;2022-12-18T00:38:18;-1.00;99.90
21487;DHT22;10905;50.822;4.336;2022-12-18T00:40:44;-1.00;99.90
21487;DHT22;10905;50.822;4.336;2022-12-18T00:43:10;-1.00;99.90
21487;DHT22;10905;50.822;4.336;2022-12-18T00:45:35;-1.00;99.90
21487;DHT22;10905;50.822;4.336;2022-12-18T00:48:02;-1.00;99.90
21487;DHT22;10905;50.822;4.336;2022-12-18T00:50:27;-1.00;99.90
21487;DHT22;10905;50.822;4.336;2022-12-18T00:52:55;-1.10;99.90
21487;DHT22;10905;50.822;4.336;2022-12-18T00:55:21;-1.00;99.90
21487;DHT22;10905;50.822;4.336;2022-12-18T00:57:48;-1.00;99.90
21487;DHT22;10905;50.822;4.336;2022-12-18T01:00:16;-1.00;99.90
21487;DHT22;10905;50.822;4.336;2022-12-18T01:02:41;-1.10;99.90
21487;DHT22;10905;50.822;4.336;2022-12-18T01:05:08;-1.10;99.90
21487;DHT22;10905;50.822;4.336;2022-12-18T01:07:34;-1.10;99.90
21487;DHT22;10905;50.822;4.336;2022-12-18T01:10:00;-1.10;99.90
21487;DHT22;10905;50.822;4.336;2022-12-18T01:12:26;-1.10;99.90
21487;DHT22;10905;50.822;4.336;2022-12-18T01:14:51;-1.00;99.90
21487;DHT22;10905;50.822;4.336;2022-12-18T01:17:17;-1.00;99.90
21487;DHT22;10905;50.822;4.336;2022-12-18T01:19:42;-1.00;99.90
21487;DHT22;10905;50.822;4.336;2022-12-18T01:22:08;-1.00;99.90
21487;DHT22;10905;50.822;4.336;2022-12-18T01:24:34;-1.00;99.90
21487;DHT22;10905;50.822;4.336;2022-12-18T01:26:59;-1.00;99.90
21487;DHT22;10905;50.822;4.336;2022-12-18T01:29:25;-0.90;99.90
21487;DHT22;10905;50.822;4.336;2022-12-18T01:31:51;-0.90;99.90
21487;DHT22;10905;50.822;4.336;2022-12-18T01:34:16;-1.00;99.90
21487;DHT22;10905;50.822;4.336;2022-12-18T01:36:42;-0.90;99.90
21487;DHT22;10905;50.822;4.336;2022-12-18T01:39:11;-1.00;99.90
21487;DHT22;10905;50.822;4.336;2022-12-18T01:41:38;-1.00;99.90
21487;DHT22;10905;50.822;4.336;2022-12-18T01:50:09;-1.00;99.90
21487;DHT22;10905;50.822;4.336;2022-12-18T01:52:36;-1.00;99.90
21487;DHT22;10905;50.822;4.336;2022-12-18T01:55:05;-1.00;99.90
21487;DHT22;10905;50.822;4.336;2022-12-18T01:57:31;-1.00;99.90
21487;DHT22;10905;50.822;4.336;2022-12-18T02:00:01;-1.00;99.90
21487;DHT22;10905;50.822;4.336;2022-12-18T02:02:28;-1.00;99.90
21487;DHT22;10905;50.822;4.336;2022-12-18T02:04:54;-1.00;99.90
21487;DHT22;10905;50.822;4.336;2022-12-18T02:18:10;-1.10;99.90
21487;DHT22;10905;50.822;4.336;2022-12-18T02:20:42;-1.00;99.90
21487;DHT22;10905;50.822;4.336;2022-12-18T02:26:21;-1.00;99.90
21487;DHT22;10905;50.822;4.336;2022-12-18T02:28:59;-1.10;99.90
21487;DHT22;10905;50.822;4.336;2022-12-18T02:31:28;-1.10;99.90
21487;DHT22;10905;50.822;4.336;2022-12-18T02:34:00;-1.00;99.90
21487;DHT22;10905;50.822;4.336;2022-12-18T02:36:28;-1.10;99.90
21487;DHT22;10905;50.822;4.336;2022-12-18T02:38:55;-1.10;99.90
21487;DHT22;10905;50.822;4.336;2022-12-18T02:41:22;-1.10;99.90
21487;DHT22;10905;50.822;4.336;2022-12-18T02:43:52;-1.20;99.90
21487;DHT22;10905;50.822;4.336;2022-12-18T02:46:38;-1.30;99.90
21487;DHT22;10905;50.822;4.336;2022-12-18T02:52:12;-1.20;99.90
21487;DHT22;10905;50.822;4.336;2022-12-18T02:57:37;-1.30;99.90
21487;DHT22;10905;50.822;4.336;2022-12-18T03:00:16;-1.50;99.90
21487;DHT22;10905;50.822;4.336;2022-12-18T03:02:58;-1.40;99.90
21487;DHT22;10905;50.822;4.336;2022-12-18T03:08:16;-1.30;99.90
21487;DHT22;10905;50.822;4.336;2022-12-18T03:11:06;-1.30;99.90
21487;DHT22;10905;50.822;4.336;2022-12-18T03:13:57;-1.40;99.90
21487;DHT22;10905;50.822;4.336;2022-12-18T03:16:28;-1.50;99.90
21487;DHT22;10905;50.822;4.336;2022-12-18T03:19:00;-1.60;99.90
21487;DHT22;10905;50.822;4.336;2022-12-18T03:21:47;-1.70;99.90
21487;DHT22;10905;50.822;4.336;2022-12-18T03:24:15;-1.70;99.90
21487;DHT22;10905;50.822;4.336;2022-12-18T03:26:44;-1.80;99.90
21487;DHT22;10905;50.822;4.336;2022-12-18T03:29:33;-1.80;99.90
21487;DHT22;10905;50.822;4.336;2022-12-18T03:32:05;-1.90;99.90
21487;DHT22;10905;50.822;4.336;2022-12-18T03:34:35;-1.90;99.90
21487;DHT22;10905;50.822;4.336;2022-12-18T03:37:02;-1.90;99.90
21487;DHT22;10905;50.822;4.336;2022-12-18T03:39:28;-1.90;99.90
21487;DHT22;10905;50.822;4.336;2022-12-18T03:42:14;-1.90;99.90
21487;DHT22;10905;50.822;4.336;2022-12-18T03:45:15;-1.90;99.90
21487;DHT22;10905;50.822;4.336;2022-12-18T03:48:09;-1.80;99.90
21487;DHT22;10905;50.822;4.336;2022-12-18T03:50:51;-1.70;99.90
21487;DHT22;10905;50.822;4.336;2022-12-18T03:56:04;-1.80;99.90
21487;DHT22;10905;50.822;4.336;2022-12-18T03:58:32;-1.70;99.90
21487;DHT22;10905;50.822;4.336;2022-12-18T04:01:02;-1.80;99.90
21487;DHT22;10905;50.822;4.336;2022-12-18T04:03:30;-1.80;99.90
21487;DHT22;10905;50.822;4.336;2022-12-18T04:05:57;-1.80;99.90
21487;DHT22;10905;50.822;4.336;2022-12-18T04:08:24;-1.80;99.90
21487;DHT22;10905;50.822;4.336;2022-12-18T04:10:51;-1.80;99.90
21487;DHT22;10905;50.822;4.336;2022-12-18T04:13:24;-1.90;99.90
21487;DHT22;10905;50.822;4.336;2022-12-18T04:15:50;-2.00;99.90
21487;DHT22;10905;50.822;4.336;2022-12-18T04:18:16;-2.00;99.90
21487;DHT22;10905;50.822;4.336;2022-12-18T04:20:41;-2.00;99.90
21487;DHT22;10905;50.822;4.336;2022-12-18T04:23:07;-2.00;99.90
21487;DHT22;10905;50.822;4.336;2022-12-18T04:25:33;-1.80;99.90
21487;DHT22;10905;50.822;4.336;2022-12-18T04:27:58;-1.90;99.90
21487;DHT22;10905;50.822;4.336;2022-12-18T04:30:24;-1.90;99.90
21487;DHT22;10905;50.822;4.336;2022-12-18T04:32:49;-1.80;99.90
21487;DHT22;10905;50.822;4.336;2022-12-18T04:35:16;-1.80;99.90
21487;DHT22;10905;50.822;4.336;2022-12-18T04:37:42;-1.90;99.90
21487;DHT22;10905;50.822;4.336;2022-12-18T04:40:07;-1.90;99.90
21487;DHT22;10905;50.822;4.336;2022-12-18T04:42:33;-1.80;99.90
21487;DHT22;10905;50.822;4.336;2022-12-18T04:44:59;-1.80;99.90
21487;DHT22;10905;50.822;4.336;2022-12-18T04:47:25;-1.90;99.90
21487;DHT22;10905;50.822;4.336;2022-12-18T04:49:50;-1.90;99.90
21487;DHT22;10905;50.822;4.336;2022-12-18T04:52:16;-2.00;99.90
21487;DHT22;10905;50.822;4.336;2022-12-18T04:54:41;-2.00;99.90
21487;DHT22;10905;50.822;4.336;2022-12-18T04:57:07;-1.90;99.90
21487;DHT22;10905;50.822;4.336;2022-12-18T04:59:33;-1.90;99.90
21487;DHT22;10905;50.822;4.336;2022-12-18T05:01:58;-1.80;99.90
21487;DHT22;10905;50.822;4.336;2022-12-18T05:04:24;-1.80;99.90
21487;DHT22;10905;50.822;4.336;2022-12-18T05:06:49;-1.80;99.90
21487;DHT22;10905;50.822;4.336;2022-12-18T05:09:15;-1.90;99.90
21487;DHT22;10905;50.822;4.336;2022-12-18T05:11:40;-2.00;99.90
21487;DHT22;10905;50.822;4.336;2022-12-18T05:14:06;-2.10;99.90
21487;DHT22;10905;50.822;4.336;2022-12-18T05:16:31;-2.00;99.90
21487;DHT22;10905;50.822;4.336;2022-12-18T05:18:57;-2.00;99.90
21487;DHT22;10905;50.822;4.336;2022-12-18T05:21:23;-2.00;99.90
21487;DHT22;10905;50.822;4.336;2022-12-18T05:23:48;-2.00;99.90
21487;DHT22;10905;50.822;4.336;2022-12-18T05:26:16;-2.00;99.90
21487;DHT22;10905;50.822;4.336;2022-12-18T05:28:42;-2.10;99.90
21487;DHT22;10905;50.822;4.336;2022-12-18T05:31:09;-2.20;99.90
21487;DHT22;10905;50.822;4.336;2022-12-18T05:33:35;-2.30;99.90
21487;DHT22;10905;50.822;4.336;2022-12-18T05:36:02;-2.30;99.90
21487;DHT22;10905;50.822;4.336;2022-12-18T05:38:28;-2.40;99.90
21487;DHT22;10905;50.822;4.336;2022-12-18T05:40:55;-2.40;99.90
21487;DHT22;10905;50.822;4.336;2022-12-18T05:43:21;-2.30;99.90
21487;DHT22;10905;50.822;4.336;2022-12-18T05:45:48;-2.30;99.90
21487;DHT22;10905;50.822;4.336;2022-12-18T05:48:14;-2.30;99.90
21487;DHT22;10905;50.822;4.336;2022-12-18T05:50:42;-2.20;99.90
21487;DHT22;10905;50.822;4.336;2022-12-18T05:53:08;-2.20;99.90
21487;DHT22;10905;50.822;4.336;2022-12-18T05:55:35;-2.30;99.90
21487;DHT22;10905;50.822;4.336;2022-12-18T05:58:02;-2.20;99.90
21487;DHT22;10905;50.822;4.336;2022-12-18T06:00:28;-2.00;99.90
21487;DHT22;10905;50.822;4.336;2022-12-18T06:02:53;-1.90;99.90
21487;DHT22;10905;50.822;4.336;2022-12-18T06:05:19;-2.00;99.90
21487;DHT22;10905;50.822;4.336;2022-12-18T06:07:45;-2.00;99.90
21487;DHT22;10905;50.822;4.336;2022-12-18T06:10:10;-1.90;99.90
21487;DHT22;10905;50.822;4.336;2022-12-18T06:12:37;-2.00;99.90
21487;DHT22;10905;50.822;4.336;2022-12-18T06:15:02;-2.00;99.90
21487;DHT22;10905;50.822;4.336;2022-12-18T06:17:32;-2.00;99.90
21487;DHT22;10905;50.822;4.336;2022-12-18T06:19:59;-1.90;99.90
21487;DHT22;10905;50.822;4.336;2022-12-18T06:22:25;-1.90;99.90
21487;DHT22;10905;50.822;4.336;2022-12-18T06:24:50;-2.00;99.90
21487;DHT22;10905;50.822;4.336;2022-12-18T06:27:16;-2.00;99.90
21487;DHT22;10905;50.822;4.336;2022-12-18T06:29:42;-2.00;99.90
21487;DHT22;10905;50.822;4.336;2022-12-18T06:32:08;-1.90;99.90
21487;DHT22;10905;50.822;4.336;2022-12-18T06:34:34;-1.90;99.90
21487;DHT22;10905;50.822;4.336;2022-12-18T06:36:59;-2.00;99.90
21487;DHT22;10905;50.822;4.336;2022-12-18T06:39:27;-1.90;99.90
21487;DHT22;10905;50.822;4.336;2022-12-18T06:41:52;-2.00;99.90
21487;DHT22;10905;50.822;4.336;2022-12-18T06:44:18;-1.90;99.90
21487;DHT22;10905;50.822;4.336;2022-12-18T06:46:44;-2.00;99.90
21487;DHT22;10905;50.822;4.336;2022-12-18T06:49:09;-1.90;99.90
21487;DHT22;10905;50.822;4.336;2022-12-18T06:51:36;-1.90;99.90
21487;DHT22;10905;50.822;4.336;2022-12-18T06:54:01;-1.90;99.90
21487;DHT22;10905;50.822;4.336;2022-12-18T06:56:27;-1.80;99.90
21487;DHT22;10905;50.822;4.336;2022-12-18T06:58:53;-1.60;99.90
21487;DHT22;10905;50.822;4.336;2022-12-18T07:01:20;-1.60;99.90
21487;DHT22;10905;50.822;4.336;2022-12-18T07:03:46;-1.80;99.90
21487;DHT22;10905;50.822;4.336;2022-12-18T07:06:18;-1.70;99.90
21487;DHT22;10905;50.822;4.336;2022-12-18T07:08:45;-1.60;99.90
21487;DHT22;10905;50.822;4.336;2022-12-18T07:11:10;-1.60;99.90
21487;DHT22;10905;50.822;4.336;2022-12-18T07:13:36;-1.70;99.90
21487;DHT22;10905;50.822;4.336;2022-12-18T07:16:07;-1.70;99.90
21487;DHT22;10905;50.822;4.336;2022-12-18T07:18:33;-1.80;99.90
21487;DHT22;10905;50.822;4.336;2022-12-18T07:21:03;-1.80;99.90
21487;DHT22;10905;50.822;4.336;2022-12-18T07:23:29;-1.80;99.90
21487;DHT22;10905;50.822;4.336;2022-12-18T07:25:54;-1.80;99.90
21487;DHT22;10905;50.822;4.336;2022-12-18T07:28:20;-1.70;99.90
21487;DHT22;10905;50.822;4.336;2022-12-18T07:30:45;-1.70;99.90
21487;DHT22;10905;50.822;4.336;2022-12-18T07:33:11;-1.70;99.90
21487;DHT22;10905;50.822;4.336;2022-12-18T07:35:37;-1.60;99.90
21487;DHT22;10905;50.822;4.336;2022-12-18T07:38:02;-1.60;99.90
21487;DHT22;10905;50.822;4.336;2022-12-18T07:40:28;-1.60;99.90
21487;DHT22;10905;50.822;4.336;2022-12-18T07:42:53;-1.60;99.90
21487;DHT22;10905;50.822;4.336;2022-12-18T07:45:19;-1.70;99.90
21487;DHT22;10905;50.822;4.336;2022-12-18T07:47:45;-1.70;99.90
21487;DHT22;10905;50.822;4.336;2022-12-18T07:50:10;-1.80;99.90
21487;DHT22;10905;50.822;4.336;2022-12-18T07:52:36;-1.80;99.90
21487;DHT22;10905;50.822;4.336;2022-12-18T07:55:02;-1.80;99.90
21487;DHT22;10905;50.822;4.336;2022-12-18T07:57:28;-1.80;99.90
21487;DHT22;10905;50.822;4.336;2022-12-18T07:59:53;-1.70;99.90
21487;DHT22;10905;50.822;4.336;2022-12-18T08:02:19;-1.80;99.90
21487;DHT22;10905;50.822;4.336;2022-12-18T08:04:44;-1.60;99.90
21487;DHT22;10905;50.822;4.336;2022-12-18T08:07:10;-1.60;99.90
21487;DHT22;10905;50.822;4.336;2022-12-18T08:09:36;-1.50;99.90
21487;DHT22;10905;50.822;4.336;2022-12-18T08:12:01;-1.60;99.90
21487;DHT22;10905;50.822;4.336;2022-12-18T08:14:27;-1.50;99.90
21487;DHT22;10905;50.822;4.336;2022-12-18T08:16:53;-1.20;99.90
21487;DHT22;10905;50.822;4.336;2022-12-18T08:19:18;-1.20;99.90
21487;DHT22;10905;50.822;4.336;2022-12-18T08:21:44;-1.10;99.90
21487;DHT22;10905;50.822;4.336;2022-12-18T08:24:10;-1.20;99.90
21487;DHT22;10905;50.822;4.336;2022-12-18T08:26:36;-1.10;99.90
21487;DHT22;10905;50.822;4.336;2022-12-18T08:29:02;-1.00;99.90
21487;DHT22;10905;50.822;4.336;2022-12-18T08:31:29;-0.90;99.90
21487;DHT22;10905;50.822;4.336;2022-12-18T08:33:55;-0.90;99.90
21487;DHT22;10905;50.822;4.336;2022-12-18T08:36:22;-0.80;99.90
21487;DHT22;10905;50.822;4.336;2022-12-18T08:38:48;-0.70;99.90
21487;DHT22;10905;50.822;4.336;2022-12-18T08:41:15;-0.70;99.90
21487;DHT22;10905;50.822;4.336;2022-12-18T08:43:41;-0.70;99.90
21487;DHT22;10905;50.822;4.336;2022-12-18T08:46:27;-0.60;99.90
21487;DHT22;10905;50.822;4.336;2022-12-18T08:48:54;-0.50;99.90
21487;DHT22;10905;50.822;4.336;2022-12-18T08:51:21;-0.40;99.90
21487;DHT22;10905;50.822;4.336;2022-12-18T08:53:46;-0.40;99.90
21487;DHT22;10905;50.822;4.336;2022-12-18T08:56:13;-0.40;99.90
21487;DHT22;10905;50.822;4.336;2022-12-18T08:58:39;-0.40;99.90
21487;DHT22;10905;50.822;4.336;2022-12-18T09:01:08;-0.20;99.90
21487;DHT22;10905;50.822;4.336;2022-12-18T09:03:37;-0.10;99.90
21487;DHT22;10905;50.822;4.336;2022-12-18T09:06:04;-0.20;99.90
21487;DHT22;10905;50.822;4.336;2022-12-18T09:08:30;-0.10;99.90
21487;DHT22;10905;50.822;4.336;2022-12-18T09:10:56;-0.10;99.90
21487;DHT22;10905;50.822;4.336;2022-12-18T09:13:22;0.00;99.90
21487;DHT22;10905;50.822;4.336;2022-12-18T09:15:50;0.10;99.90
21487;DHT22;10905;50.822;4.336;2022-12-18T09:18:17;0.10;99.90
21487;DHT22;10905;50.822;4.336;2022-12-18T09:20:44;0.00;99.90
21487;DHT22;10905;50.822;4.336;2022-12-18T09:23:10;0.00;99.90
21487;DHT22;10905;50.822;4.336;2022-12-18T09:25:37;0.00;99.90
21487;DHT22;10905;50.822;4.336;2022-12-18T09:28:09;0.20;99.90
21487;DHT22;10905;50.822;4.336;2022-12-18T09:30:41;0.20;99.90
21487;DHT22;10905;50.822;4.336;2022-12-18T09:33:07;0.30;99.90
21487;DHT22;10905;50.822;4.336;2022-12-18T09:35:35;0.50;99.90
21487;DHT22;10905;50.822;4.336;2022-12-18T09:38:01;0.40;99.90
21487;DHT22;10905;50.822;4.336;2022-12-18T09:40:31;0.40;99.90
21487;DHT22;10905;50.822;4.336;2022-12-18T09:43:01;0.50;99.90
21487;DHT22;10905;50.822;4.336;2022-12-18T09:45:53;0.50;99.90
21487;DHT22;10905;50.822;4.336;2022-12-18T09:48:28;0.50;99.90
21487;DHT22;10905;50.822;4.336;2022-12-18T09:50:59;0.60;99.90
21487;DHT22;10905;50.822;4.336;2022-12-18T09:53:30;0.70;99.90
21487;DHT22;10905;50.822;4.336;2022-12-18T09:55:58;0.80;99.90
21487;DHT22;10905;50.822;4.336;2022-12-18T09:58:39;0.80;99.90
21487;DHT22;10905;50.822;4.336;2022-12-18T10:01:13;0.80;99.90
21487;DHT22;10905;50.822;4.336;2022-12-18T10:03:39;0.90;99.90
21487;DHT22;10905;50.822;4.336;2022-12-18T10:14:19;1.10;99.90
21487;DHT22;10905;50.822;4.336;2022-12-18T10:25:34;1.30;99.90
21487;DHT22;10905;50.822;4.336;2022-12-18T10:28:16;1.10;99.90
21487;DHT22;10905;50.822;4.336;2022-12-18T10:30:43;1.20;99.90
21487;DHT22;10905;50.822;4.336;2022-12-18T10:33:15;1.30;99.90
21487;DHT22;10905;50.822;4.336;2022-12-18T10:35:42;1.40;99.90
21487;DHT22;10905;50.822;4.336;2022-12-18T10:41:05;1.50;99.90
21487;DHT22;10905;50.822;4.336;2022-12-18T10:43:31;1.50;99.90
21487;DHT22;10905;50.822;4.336;2022-12-18T10:46:04;1.60;99.90
21487;DHT22;10905;50.822;4.336;2022-12-18T10:51:20;1.60;99.90
21487;DHT22;10905;50.822;4.336;2022-12-18T10:53:52;1.80;99.90
21487;DHT22;10905;50.822;4.336;2022-12-18T10:56:20;2.10;99.90
21487;DHT22;10905;50.822;4.336;2022-12-18T10:58:56;2.10;99.90
21487;DHT22;10905;50.822;4.336;2022-12-18T11:01:22;2.20;99.90
21487;DHT22;10905;50.822;4.336;2022-12-18T11:06:22;2.20;99.90
21487;DHT22;10905;50.822;4.336;2022-12-18T11:09:18;2.20;99.90
21487;DHT22;10905;50.822;4.336;2022-12-18T11:14:52;2.10;99.90
21487;DHT22;10905;50.822;4.336;2022-12-18T11:17:33;2.20;99.90
21487;DHT22;10905;50.822;4.336;2022-12-18T11:20:06;2.10;99.90
21487;DHT22;10905;50.822;4.336;2022-12-18T11:22:34;2.30;99.90
21487;DHT22;10905;50.822;4.336;2022-12-18T11:27:28;2.40;99.90
21487;DHT22;10905;50.822;4.336;2022-12-18T11:30:13;2.20;99.90
21487;DHT22;10905;50.822;4.336;2022-12-18T11:32:54;2.20;99.90
21487;DHT22;10905;50.822;4.336;2022-12-18T11:35:57;2.30;99.90
21487;DHT22;10905;50.822;4.336;2022-12-18T11:38:25;2.40;99.90
21487;DHT22;10905;50.822;4.336;2022-12-18T11:41:21;2.30;99.90
21487;DHT22;10905;50.822;4.336;2022-12-18T11:44:11;2.40;99.90
21487;DHT22;10905;50.822;4.336;2022-12-18T11:46:47;2.40;99.90
21487;DHT22;10905;50.822;4.336;2022-12-18T11:49:15;2.50;99.90
21487;DHT22;10905;50.822;4.336;2022-12-18T11:52:04;2.50;99.90
21487;DHT22;10905;50.822;4.336;2022-12-18T11:54:34;2.60;99.90
21487;DHT22;10905;50.822;4.336;2022-12-18T11:57:12;2.70;99.90
21487;DHT22;10905;50.822;4.336;2022-12-18T11:59:48;2.50;99.90
21487;DHT22;10905;50.822;4.336;2022-12-18T12:13:34;2.50;99.90
21487;DHT22;10905;50.822;4.336;2022-12-18T12:19:00;2.60;99.90
21487;DHT22;10905;50.822;4.336;2022-12-18T12:21:46;2.80;99.90
21487;DHT22;10905;50.822;4.336;2022-12-18T12:30:20;2.80;99.90
21487;DHT22;10905;50.822;4.336;2022-12-18T12:33:08;2.80;99.90
21487;DHT22;10905;50.822;4.336;2022-12-18T12:38:49;2.90;99.90
21487;DHT22;10905;50.822;4.336;2022-12-18T12:41:19;2.90;99.90
21487;DHT22;10905;50.822;4.336;2022-12-18T12:44:08;2.90;99.90
21487;DHT22;10905;50.822;4.336;2022-12-18T12:46:39;2.90;99.90
21487;DHT22;10905;50.822;4.336;2022-12-18T12:49:15;2.90;99.90
21487;DHT22;10905;50.822;4.336;2022-12-18T12:51:47;3.10;99.90
21487;DHT22;10905;50.822;4.336;2022-12-18T12:54:18;3.20;99.90
21487;DHT22;10905;50.822;4.336;2022-12-18T12:56:57;3.30;99.90
21487;DHT22;10905;50.822;4.336;2022-12-18T12:59:56;3.40;99.90
21487;DHT22;10905;50.822;4.336;2022-12-18T13:07:58;3.00;99.90
21487;DHT22;10905;50.822;4.336;2022-12-18T13:10:45;3.10;99.90
21487;DHT22;10905;50.822;4.336;2022-12-18T13:13:15;3.00;99.90
21487;DHT22;10905;50.822;4.336;2022-12-18T13:16:04;3.10;99.90
21487;DHT22;10905;50.822;4.336;2022-12-18T13:18:30;3.00;99.90
21487;DHT22;10905;50.822;4.336;2022-12-18T13:25:52;2.80;99.90
21487;DHT22;10905;50.822;4.336;2022-12-18T13:30:55;2.80;99.90
21487;DHT22;10905;50.822;4.336;2022-12-18T13:36:15;2.90;99.90
21487;DHT22;10905;50.822;4.336;2022-12-18T13:38:42;3.00;99.90
21487;DHT22;10905;50.822;4.336;2022-12-18T13:41:27;3.00;99.90
21487;DHT22;10905;50.822;4.336;2022-12-18T13:43:55;3.00;99.90
21487;DHT22;10905;50.822;4.336;2022-12-18T13:46:43;2.90;99.90
21487;DHT22;10905;50.822;4.336;2022-12-18T13:51:44;3.00;99.90
21487;DHT22;10905;50.822;4.336;2022-12-18T13:54:35;3.00;99.90
21487;DHT22;10905;50.822;4.336;2022-12-18T13:57:02;3.00;99.90
21487;DHT22;10905;50.822;4.336;2022-12-18T13:59:38;2.90;99.90
21487;DHT22;10905;50.822;4.336;2022-12-18T14:02:23;2.80;99.90
21487;DHT22;10905;50.822;4.336;2022-12-18T14:04:51;2.80;99.90
21487;DHT22;10905;50.822;4.336;2022-12-18T14:07:24;2.70;99.90
21487;DHT22;10905;50.822;4.336;2022-12-18T14:09:52;2.60;99.90
21487;DHT22;10905;50.822;4.336;2022-12-18T14:12:22;2.60;99.90
21487;DHT22;10905;50.822;4.336;2022-12-18T14:17:57;2.50;99.90
21487;DHT22;10905;50.822;4.336;2022-12-18T14:20:29;2.70;99.90
21487;DHT22;10905;50.822;4.336;2022-12-18T14:22:56;2.80;99.90
21487;DHT22;10905;50.822;4.336;2022-12-18T14:25:27;2.50;99.90
21487;DHT22;10905;50.822;4.336;2022-12-18T14:28:14;2.40;99.90
21487;DHT22;10905;50.822;4.336;2022-12-18T14:30:45;2.40;99.90
21487;DHT22;10905;50.822;4.336;2022-12-18T14:35:40;2.60;99.90
21487;DHT22;10905;50.822;4.336;2022-12-18T14:38:39;2.60;99.90
21487;DHT22;10905;50.822;4.336;2022-12-18T14:41:15;2.40;99.90
21487;DHT22;10905;50.822;4.336;2022-12-18T14:43:50;2.50;99.90
21487;DHT22;10905;50.822;4.336;2022-12-18T14:46:35;2.60;99.90
21487;DHT22;10905;50.822;4.336;2022-12-18T14:49:35;2.60;99.90
21487;DHT22;10905;50.822;4.336;2022-12-18T14:52:06;2.60;99.90
21487;DHT22;10905;50.822;4.336;2022-12-18T14:54:46;2.60;99.90
21487;DHT22;10905;50.822;4.336;2022-12-18T14:59:40;2.60;99.90
21487;DHT22;10905;50.822;4.336;2022-12-18T15:02:27;2.60;99.90
21487;DHT22;10905;50.822;4.336;2022-12-18T15:07:52;2.60;99.90
21487;DHT22;10905;50.822;4.336;2022-12-18T15:10:27;2.50;99.90
21487;DHT22;10905;50.822;4.336;2022-12-18T15:23:33;2.50;99.90
21487;DHT22;10905;50.822;4.336;2022-12-18T15:26:06;2.40;99.90
21487;DHT22;10905;50.822;4.336;2022-12-18T15:31:20;2.50;99.90
21487;DHT22;10905;50.822;4.336;2022-12-18T15:36:19;2.40;99.90
21487;DHT22;10905;50.822;4.336;2022-12-18T15:38:53;2.30;99.90
21487;DHT22;10905;50.822;4.336;2022-12-18T15:41:21;2.30;99.90
21487;DHT22;10905;50.822;4.336;2022-12-18T15:43:48;2.40;99.90
21487;DHT22;10905;50.822;4.336;2022-12-18T15:46:20;2.40;99.90
21487;DHT22;10905;50.822;4.336;2022-12-18T15:48:49;2.40;99.90
21487;DHT22;10905;50.822;4.336;2022-12-18T15:51:21;2.50;99.90
21487;DHT22;10905;50.822;4.336;2022-12-18T15:53:50;2.50;99.90
21487;DHT22;10905;50.822;4.336;2022-12-18T15:56:17;2.50;99.90
21487;DHT22;10905;50.822;4.336;2022-12-18T15:59:02;2.60;99.90
21487;DHT22;10905;50.822;4.336;2022-12-18T16:01:29;2.40;99.90
21487;DHT22;10905;50.822;4.336;2022-12-18T16:03:55;2.40;99.90
21487;DHT22;10905;50.822;4.336;2022-12-18T16:06:22;2.30;99.90
21487;DHT22;10905;50.822;4.336;2022-12-18T16:08:48;2.30;99.90
21487;DHT22;10905;50.822;4.336;2022-12-18T16:13:46;2.40;99.90
21487;DHT22;10905;50.822;4.336;2022-12-18T16:16:11;2.50;99.90
21487;DHT22;10905;50.822;4.336;2022-12-18T16:18:37;2.50;99.90
21487;DHT22;10905;50.822;4.336;2022-12-18T16:21:02;2.60;99.90
21487;DHT22;10905;50.822;4.336;2022-12-18T16:23:28;2.60;99.90
21487;DHT22;10905;50.822;4.336;2022-12-18T16:25:54;2.60;99.90
21487;DHT22;10905;50.822;4.336;2022-12-18T16:28:19;2.50;99.90
21487;DHT22;10905;50.822;4.336;2022-12-18T16:30:45;2.50;99.90
21487;DHT22;10905;50.822;4.336;2022-12-18T16:33:10;2.60;99.90
21487;DHT22;10905;50.822;4.336;2022-12-18T16:35:36;2.70;99.90
21487;DHT22;10905;50.822;4.336;2022-12-18T16:38:02;2.80;99.90
21487;DHT22;10905;50.822;4.336;2022-12-18T16:40:31;2.80;99.90
21487;DHT22;10905;50.822;4.336;2022-12-18T16:42:57;2.70;99.90
21487;DHT22;10905;50.822;4.336;2022-12-18T16:45:23;2.60;99.90
21487;DHT22;10905;50.822;4.336;2022-12-18T16:47:48;2.70;99.90
21487;DHT22;10905;50.822;4.336;2022-12-18T16:50:14;2.70;99.90
21487;DHT22;10905;50.822;4.336;2022-12-18T16:52:40;2.70;99.90
21487;DHT22;10905;50.822;4.336;2022-12-18T16:55:06;2.80;99.90
21487;DHT22;10905;50.822;4.336;2022-12-18T16:57:32;2.80;99.90
21487;DHT22;10905;50.822;4.336;2022-12-18T16:59:58;2.90;99.90
21487;DHT22;10905;50.822;4.336;2022-12-18T17:02:25;2.90;99.90
21487;DHT22;10905;50.822;4.336;2022-12-18T17:04:55;2.80;99.90
21487;DHT22;10905;50.822;4.336;2022-12-18T17:07:22;2.70;99.90
21487;DHT22;10905;50.822;4.336;2022-12-18T17:09:47;2.80;99.90
21487;DHT22;10905;50.822;4.336;2022-12-18T17:12:14;2.70;99.90
21487;DHT22;10905;50.822;4.336;2022-12-18T17:14:40;2.60;99.90
21487;DHT22;10905;50.822;4.336;2022-12-18T17:17:05;2.70;99.90
21487;DHT22;10905;50.822;4.336;2022-12-18T17:19:32;2.80;99.90
21487;DHT22;10905;50.822;4.336;2022-12-18T17:21:58;2.80;99.90
21487;DHT22;10905;50.822;4.336;2022-12-18T17:24:24;2.80;99.90
21487;DHT22;10905;50.822;4.336;2022-12-18T17:26:49;2.90;99.90
21487;DHT22;10905;50.822;4.336;2022-12-18T17:29:17;2.80;99.90
21487;DHT22;10905;50.822;4.336;2022-12-18T17:31:44;2.80;99.90
21487;DHT22;10905;50.822;4.336;2022-12-18T17:34:10;2.80;99.90
21487;DHT22;10905;50.822;4.336;2022-12-18T17:36:36;2.60;99.90
21487;DHT22;10905;50.822;4.336;2022-12-18T17:39:04;2.60;99.90
21487;DHT22;10905;50.822;4.336;2022-12-18T17:41:30;2.60;99.90
21487;DHT22;10905;50.822;4.336;2022-12-18T17:44:01;2.60;99.90
21487;DHT22;10905;50.822;4.336;2022-12-18T17:46:28;2.60;99.90
21487;DHT22;10905;50.822;4.336;2022-12-18T17:48:55;2.70;99.90
21487;DHT22;10905;50.822;4.336;2022-12-18T17:51:21;2.60;99.90
21487;DHT22;10905;50.822;4.336;2022-12-18T17:53:47;2.60;99.90
21487;DHT22;10905;50.822;4.336;2022-12-18T17:56:15;2.50;99.90
21487;DHT22;10905;50.822;4.336;2022-12-18T17:58:41;2.60;99.90
21487;DHT22;10905;50.822;4.336;2022-12-18T18:01:07;2.60;99.90
21487;DHT22;10905;50.822;4.336;2022-12-18T18:03:34;2.50;99.90
21487;DHT22;10905;50.822;4.336;2022-12-18T18:06:03;2.50;99.90
21487;DHT22;10905;50.822;4.336;2022-12-18T18:08:28;2.40;99.90